sensor_id;sensor_type;location;lat;lon;timestamp;P1;durP1;ratioP1;P2;durP2;ratioP2
18405;SDS011;9329;48.720;9.588;2022-11-14T00:00:02;33.87;;;23.50;;
18405;SDS011;9329;48.720;9.588;2022-11-14T00:02:49;35.22;;;24.25;;
18405;SDS011;9329;48.720;9.588;2022-11-14T00:05:37;36.55;;;24.98;;
18405;SDS011;9329;48.720;9.588;2022-11-14T00:08:23;36.67;;;24.63;;
18405;SDS011;9329;48.720;9.588;2022-11-14T00:11:10;38.37;;;24.87;;
18405;SDS011;9329;48.720;9.588;2022-11-14T00:13:56;34.27;;;23.30;;
18405;SDS011;9329;48.720;9.588;2022-11-14T00:16:41;34.47;;;22.40;;
18405;SDS011;9329;48.720;9.588;2022-11-14T00:19:27;33.73;;;22.53;;
18405;SDS011;9329;48.720;9.588;2022-11-14T00:22:12;34.53;;;23.83;;
18405;SDS011;9329;48.720;9.588;2022-11-14T00:24:58;36.60;;;24.17;;
18405;SDS011;9329;48.720;9.588;2022-11-14T00:27:45;34.63;;;23.70;;
18405;SDS011;9329;48.720;9.588;2022-11-14T00:30:30;37.03;;;24.03;;
18405;SDS011;9329;48.720;9.588;2022-11-14T00:33:17;35.30;;;24.10;;
18405;SDS011;9329;48.720;9.588;2022-11-14T00:36:03;34.60;;;23.27;;
18405;SDS011;9329;48.720;9.588;2022-11-14T00:38:51;33.55;;;23.35;;
18405;SDS011;9329;48.720;9.588;2022-11-14T00:41:37;34.17;;;22.85;;
18405;SDS011;9329;48.720;9.588;2022-11-14T00:44:24;34.55;;;23.25;;
18405;SDS011;9329;48.720;9.588;2022-11-14T00:47:10;35.28;;;23.80;;
18405;SDS011;9329;48.720;9.588;2022-11-14T00:49:55;36.88;;;24.20;;
18405;SDS011;9329;48.720;9.588;2022-11-14T00:52:41;34.67;;;24.00;;
18405;SDS011;9329;48.720;9.588;2022-11-14T00:55:27;34.88;;;23.08;;
18405;SDS011;9329;48.720;9.588;2022-11-14T00:58:12;36.50;;;24.30;;
18405;SDS011;9329;48.720;9.588;2022-11-14T01:00:59;37.45;;;24.17;;
18405;SDS011;9329;48.720;9.588;2022-11-14T01:03:46;34.78;;;24.08;;
18405;SDS011;9329;48.720;9.588;2022-11-14T01:06:32;34.17;;;23.38;;
18405;SDS011;9329;48.720;9.588;2022-11-14T01:09:17;37.47;;;24.55;;
18405;SDS011;9329;48.720;9.588;2022-11-14T01:12:03;35.72;;;24.17;;
18405;SDS011;9329;48.720;9.588;2022-11-14T01:14:49;36.28;;;24.00;;
18405;SDS011;9329;48.720;9.588;2022-11-14T01:17:36;33.47;;;23.33;;
18405;SDS011;9329;48.720;9.588;2022-11-14T01:20:21;33.33;;;22.80;;
18405;SDS011;9329;48.720;9.588;2022-11-14T01:23:07;36.97;;;24.33;;
18405;SDS011;9329;48.720;9.588;2022-11-14T01:25:53;36.00;;;25.13;;
18405;SDS011;9329;48.720;9.588;2022-11-14T01:28:45;36.38;;;24.38;;
18405;SDS011;9329;48.720;9.588;2022-11-14T01:31:30;36.40;;;24.05;;
18405;SDS011;9329;48.720;9.588;2022-11-14T01:34:17;37.60;;;24.55;;
18405;SDS011;9329;48.720;9.588;2022-11-14T01:37:02;34.97;;;24.10;;
18405;SDS011;9329;48.720;9.588;2022-11-14T01:39:48;37.05;;;23.95;;
18405;SDS011;9329;48.720;9.588;2022-11-14T01:42:34;37.00;;;24.50;;
18405;SDS011;9329;48.720;9.588;2022-11-14T01:48:32;36.50;;;23.45;;
18405;SDS011;9329;48.720;9.588;2022-11-14T01:51:24;37.03;;;24.57;;
18405;SDS011;9329;48.720;9.588;2022-11-14T01:54:13;38.22;;;25.13;;
18405;SDS011;9329;48.720;9.588;2022-11-14T01:57:05;39.38;;;25.83;;
18405;SDS011;9329;48.720;9.588;2022-11-14T01:59:52;35.20;;;23.40;;
18405;SDS011;9329;48.720;9.588;2022-11-14T02:02:40;36.88;;;23.23;;
18405;SDS011;9329;48.720;9.588;2022-11-14T02:05:27;32.65;;;21.77;;
18405;SDS011;9329;48.720;9.588;2022-11-14T02:08:15;32.45;;;19.67;;
18405;SDS011;9329;48.720;9.588;2022-11-14T02:11:02;27.48;;;20.17;;
18405;SDS011;9329;48.720;9.588;2022-11-14T02:13:48;30.55;;;20.42;;
18405;SDS011;9329;48.720;9.588;2022-11-14T02:16:34;29.08;;;20.92;;
18405;SDS011;9329;48.720;9.588;2022-11-14T02:19:20;28.38;;;20.02;;
18405;SDS011;9329;48.720;9.588;2022-11-14T02:22:06;26.63;;;19.15;;
18405;SDS011;9329;48.720;9.588;2022-11-14T02:24:52;26.83;;;18.40;;
18405;SDS011;9329;48.720;9.588;2022-11-14T02:27:38;30.42;;;19.02;;
18405;SDS011;9329;48.720;9.588;2022-11-14T02:30:24;28.83;;;21.20;;
18405;SDS011;9329;48.720;9.588;2022-11-14T02:33:09;36.17;;;21.50;;
18405;SDS011;9329;48.720;9.588;2022-11-14T02:35:55;33.78;;;21.67;;
18405;SDS011;9329;48.720;9.588;2022-11-14T02:38:42;97.32;;;24.00;;
18405;SDS011;9329;48.720;9.588;2022-11-14T02:41:27;53.63;;;24.05;;
18405;SDS011;9329;48.720;9.588;2022-11-14T02:44:13;35.95;;;22.88;;
18405;SDS011;9329;48.720;9.588;2022-11-14T02:46:58;83.38;;;21.95;;
18405;SDS011;9329;48.720;9.588;2022-11-14T02:49:44;84.93;;;20.50;;
18405;SDS011;9329;48.720;9.588;2022-11-14T02:52:29;64.07;;;21.13;;
18405;SDS011;9329;48.720;9.588;2022-11-14T02:55:16;45.35;;;22.35;;
18405;SDS011;9329;48.720;9.588;2022-11-14T02:58:02;41.43;;;22.97;;
18405;SDS011;9329;48.720;9.588;2022-11-14T03:00:48;32.22;;;21.15;;
18405;SDS011;9329;48.720;9.588;2022-11-14T03:03:33;27.23;;;18.75;;
18405;SDS011;9329;48.720;9.588;2022-11-14T03:06:19;26.63;;;17.25;;
18405;SDS011;9329;48.720;9.588;2022-11-14T03:09:04;26.55;;;16.63;;
18405;SDS011;9329;48.720;9.588;2022-11-14T03:11:51;22.48;;;16.52;;
18405;SDS011;9329;48.720;9.588;2022-11-14T03:14:37;22.15;;;16.10;;
18405;SDS011;9329;48.720;9.588;2022-11-14T03:17:22;25.02;;;15.98;;
18405;SDS011;9329;48.720;9.588;2022-11-14T03:20:08;24.08;;;17.20;;
18405;SDS011;9329;48.720;9.588;2022-11-14T03:22:54;24.23;;;17.05;;
18405;SDS011;9329;48.720;9.588;2022-11-14T03:25:40;31.45;;;17.70;;
18405;SDS011;9329;48.720;9.588;2022-11-14T03:28:26;24.85;;;18.73;;
18405;SDS011;9329;48.720;9.588;2022-11-14T03:31:13;33.47;;;18.30;;
18405;SDS011;9329;48.720;9.588;2022-11-14T03:33:59;27.30;;;19.88;;
18405;SDS011;9329;48.720;9.588;2022-11-14T03:36:44;24.95;;;18.13;;
18405;SDS011;9329;48.720;9.588;2022-11-14T03:39:30;25.13;;;17.40;;
18405;SDS011;9329;48.720;9.588;2022-11-14T03:42:15;45.67;;;17.95;;
18405;SDS011;9329;48.720;9.588;2022-11-14T03:45:03;39.67;;;18.33;;
18405;SDS011;9329;48.720;9.588;2022-11-14T03:47:49;24.08;;;17.45;;
18405;SDS011;9329;48.720;9.588;2022-11-14T03:50:35;25.67;;;17.73;;
18405;SDS011;9329;48.720;9.588;2022-11-14T03:53:20;37.42;;;17.15;;
18405;SDS011;9329;48.720;9.588;2022-11-14T03:56:06;24.52;;;17.88;;
18405;SDS011;9329;48.720;9.588;2022-11-14T03:58:52;60.97;;;17.73;;
18405;SDS011;9329;48.720;9.588;2022-11-14T04:01:39;23.42;;;17.30;;
18405;SDS011;9329;48.720;9.588;2022-11-14T04:04:24;26.02;;;19.10;;
18405;SDS011;9329;48.720;9.588;2022-11-14T04:07:10;24.95;;;18.70;;
18405;SDS011;9329;48.720;9.588;2022-11-14T04:09:55;26.83;;;18.02;;
18405;SDS011;9329;48.720;9.588;2022-11-14T04:12:42;25.60;;;18.55;;
18405;SDS011;9329;48.720;9.588;2022-11-14T04:15:32;30.20;;;18.33;;
18405;SDS011;9329;48.720;9.588;2022-11-14T04:18:19;30.63;;;18.20;;
18405;SDS011;9329;48.720;9.588;2022-11-14T04:21:05;35.87;;;17.53;;
18405;SDS011;9329;48.720;9.588;2022-11-14T04:23:51;27.00;;;18.27;;
18405;SDS011;9329;48.720;9.588;2022-11-14T04:26:36;22.98;;;17.25;;
18405;SDS011;9329;48.720;9.588;2022-11-14T04:29:22;25.33;;;17.30;;
18405;SDS011;9329;48.720;9.588;2022-11-14T04:32:08;22.77;;;17.13;;
18405;SDS011;9329;48.720;9.588;2022-11-14T04:34:55;22.65;;;16.95;;
18405;SDS011;9329;48.720;9.588;2022-11-14T04:37:40;24.08;;;17.15;;
18405;SDS011;9329;48.720;9.588;2022-11-14T04:40:26;21.02;;;16.40;;
18405;SDS011;9329;48.720;9.588;2022-11-14T04:43:11;21.58;;;15.75;;
18405;SDS011;9329;48.720;9.588;2022-11-14T04:45:57;22.25;;;16.30;;
18405;SDS011;9329;48.720;9.588;2022-11-14T04:48:43;17.50;;;14.18;;
18405;SDS011;9329;48.720;9.588;2022-11-14T04:51:30;20.00;;;15.60;;
18405;SDS011;9329;48.720;9.588;2022-11-14T04:54:15;22.17;;;16.80;;
18405;SDS011;9329;48.720;9.588;2022-11-14T04:57:01;23.63;;;16.73;;
18405;SDS011;9329;48.720;9.588;2022-11-14T04:59:47;23.00;;;17.77;;
18405;SDS011;9329;48.720;9.588;2022-11-14T05:02:32;24.38;;;17.95;;
18405;SDS011;9329;48.720;9.588;2022-11-14T05:05:18;22.35;;;16.98;;
18405;SDS011;9329;48.720;9.588;2022-11-14T05:08:05;21.13;;;16.25;;
18405;SDS011;9329;48.720;9.588;2022-11-14T05:10:51;22.52;;;16.50;;
18405;SDS011;9329;48.720;9.588;2022-11-14T05:13:36;21.25;;;16.48;;
18405;SDS011;9329;48.720;9.588;2022-11-14T05:16:22;23.65;;;17.77;;
18405;SDS011;9329;48.720;9.588;2022-11-14T05:19:07;24.48;;;17.73;;
18405;SDS011;9329;48.720;9.588;2022-11-14T05:21:53;25.00;;;18.17;;
18405;SDS011;9329;48.720;9.588;2022-11-14T05:24:40;24.60;;;18.33;;
18405;SDS011;9329;48.720;9.588;2022-11-14T05:27:25;21.92;;;17.17;;
18405;SDS011;9329;48.720;9.588;2022-11-14T05:30:12;23.05;;;17.42;;
18405;SDS011;9329;48.720;9.588;2022-11-14T05:32:58;22.92;;;17.00;;
18405;SDS011;9329;48.720;9.588;2022-11-14T05:35:44;22.70;;;16.80;;
18405;SDS011;9329;48.720;9.588;2022-11-14T05:38:29;22.40;;;17.02;;
18405;SDS011;9329;48.720;9.588;2022-11-14T05:41:16;23.48;;;16.60;;
18405;SDS011;9329;48.720;9.588;2022-11-14T05:44:03;21.63;;;16.83;;
18405;SDS011;9329;48.720;9.588;2022-11-14T05:46:49;21.60;;;16.23;;
18405;SDS011;9329;48.720;9.588;2022-11-14T05:49:35;25.58;;;18.98;;
18405;SDS011;9329;48.720;9.588;2022-11-14T05:52:20;23.35;;;17.88;;
18405;SDS011;9329;48.720;9.588;2022-11-14T05:55:06;24.20;;;18.75;;
18405;SDS011;9329;48.720;9.588;2022-11-14T05:57:56;25.55;;;18.70;;
18405;SDS011;9329;48.720;9.588;2022-11-14T06:00:41;23.60;;;17.50;;
18405;SDS011;9329;48.720;9.588;2022-11-14T06:03:29;23.80;;;17.17;;
18405;SDS011;9329;48.720;9.588;2022-11-14T06:06:17;26.02;;;18.70;;
18405;SDS011;9329;48.720;9.588;2022-11-14T06:09:04;25.73;;;20.00;;
18405;SDS011;9329;48.720;9.588;2022-11-14T06:11:50;27.00;;;19.80;;
18405;SDS011;9329;48.720;9.588;2022-11-14T06:14:37;24.47;;;18.10;;
18405;SDS011;9329;48.720;9.588;2022-11-14T06:17:23;23.23;;;17.33;;
18405;SDS011;9329;48.720;9.588;2022-11-14T06:20:08;23.45;;;16.98;;
18405;SDS011;9329;48.720;9.588;2022-11-14T06:22:55;23.08;;;18.00;;
18405;SDS011;9329;48.720;9.588;2022-11-14T06:25:41;23.88;;;17.85;;
18405;SDS011;9329;48.720;9.588;2022-11-14T06:28:27;25.13;;;18.48;;
18405;SDS011;9329;48.720;9.588;2022-11-14T06:31:14;28.48;;;20.80;;
18405;SDS011;9329;48.720;9.588;2022-11-14T06:34:00;26.55;;;19.42;;
18405;SDS011;9329;48.720;9.588;2022-11-14T06:36:48;28.92;;;20.63;;
18405;SDS011;9329;48.720;9.588;2022-11-14T06:39:33;27.58;;;20.23;;
18405;SDS011;9329;48.720;9.588;2022-11-14T06:42:19;28.15;;;20.13;;
18405;SDS011;9329;48.720;9.588;2022-11-14T06:45:05;25.77;;;18.17;;
18405;SDS011;9329;48.720;9.588;2022-11-14T06:47:52;26.87;;;18.37;;
18405;SDS011;9329;48.720;9.588;2022-11-14T06:50:41;27.17;;;19.30;;
18405;SDS011;9329;48.720;9.588;2022-11-14T06:53:28;24.85;;;19.05;;
18405;SDS011;9329;48.720;9.588;2022-11-14T06:56:15;25.00;;;18.08;;
18405;SDS011;9329;48.720;9.588;2022-11-14T06:59:02;22.23;;;16.90;;
18405;SDS011;9329;48.720;9.588;2022-11-14T07:01:49;27.05;;;19.08;;
18405;SDS011;9329;48.720;9.588;2022-11-14T07:04:35;25.35;;;18.48;;
18405;SDS011;9329;48.720;9.588;2022-11-14T07:07:21;26.05;;;18.85;;
18405;SDS011;9329;48.720;9.588;2022-11-14T07:10:06;25.83;;;18.20;;
18405;SDS011;9329;48.720;9.588;2022-11-14T07:12:53;25.00;;;17.90;;
18405;SDS011;9329;48.720;9.588;2022-11-14T07:15:38;26.30;;;18.83;;
18405;SDS011;9329;48.720;9.588;2022-11-14T07:18:24;31.80;;;21.25;;
18405;SDS011;9329;48.720;9.588;2022-11-14T07:21:11;30.42;;;20.90;;
18405;SDS011;9329;48.720;9.588;2022-11-14T07:23:57;31.17;;;20.83;;
18405;SDS011;9329;48.720;9.588;2022-11-14T07:26:42;27.57;;;19.20;;
18405;SDS011;9329;48.720;9.588;2022-11-14T07:29:29;27.73;;;19.27;;
18405;SDS011;9329;48.720;9.588;2022-11-14T07:32:15;28.80;;;19.40;;
18405;SDS011;9329;48.720;9.588;2022-11-14T07:35:01;28.23;;;19.58;;
18405;SDS011;9329;48.720;9.588;2022-11-14T07:37:48;26.33;;;18.10;;
18405;SDS011;9329;48.720;9.588;2022-11-14T07:40:33;27.73;;;18.38;;
18405;SDS011;9329;48.720;9.588;2022-11-14T07:43:19;30.70;;;20.17;;
18405;SDS011;9329;48.720;9.588;2022-11-14T07:46:05;29.38;;;20.00;;
18405;SDS011;9329;48.720;9.588;2022-11-14T07:48:51;29.33;;;19.00;;
18405;SDS011;9329;48.720;9.588;2022-11-14T07:51:37;26.27;;;18.20;;
18405;SDS011;9329;48.720;9.588;2022-11-14T07:54:24;27.30;;;18.17;;
18405;SDS011;9329;48.720;9.588;2022-11-14T07:57:10;28.00;;;19.02;;
18405;SDS011;9329;48.720;9.588;2022-11-14T07:59:55;28.10;;;19.33;;
18405;SDS011;9329;48.720;9.588;2022-11-14T08:02:41;29.30;;;20.42;;
18405;SDS011;9329;48.720;9.588;2022-11-14T08:05:27;31.05;;;20.83;;
18405;SDS011;9329;48.720;9.588;2022-11-14T08:08:12;30.35;;;21.38;;
18405;SDS011;9329;48.720;9.588;2022-11-14T08:11:00;27.70;;;19.85;;
18405;SDS011;9329;48.720;9.588;2022-11-14T08:13:45;31.20;;;20.27;;
18405;SDS011;9329;48.720;9.588;2022-11-14T08:16:31;29.87;;;20.30;;
18405;SDS011;9329;48.720;9.588;2022-11-14T08:19:16;34.55;;;21.98;;
18405;SDS011;9329;48.720;9.588;2022-11-14T08:22:02;28.08;;;20.13;;
18405;SDS011;9329;48.720;9.588;2022-11-14T08:24:47;27.58;;;19.55;;
18405;SDS011;9329;48.720;9.588;2022-11-14T08:27:35;28.48;;;19.75;;
18405;SDS011;9329;48.720;9.588;2022-11-14T08:30:20;26.52;;;19.00;;
18405;SDS011;9329;48.720;9.588;2022-11-14T08:33:06;29.20;;;20.27;;
18405;SDS011;9329;48.720;9.588;2022-11-14T08:35:51;28.15;;;20.10;;
18405;SDS011;9329;48.720;9.588;2022-11-14T08:38:37;29.30;;;20.80;;
18405;SDS011;9329;48.720;9.588;2022-11-14T08:41:23;29.13;;;19.67;;
18405;SDS011;9329;48.720;9.588;2022-11-14T08:44:09;29.45;;;19.42;;
18405;SDS011;9329;48.720;9.588;2022-11-14T08:46:55;28.10;;;19.20;;
18405;SDS011;9329;48.720;9.588;2022-11-14T08:49:43;26.30;;;18.83;;
18405;SDS011;9329;48.720;9.588;2022-11-14T08:52:29;26.50;;;18.83;;
18405;SDS011;9329;48.720;9.588;2022-11-14T08:55:14;27.73;;;19.08;;
18405;SDS011;9329;48.720;9.588;2022-11-14T08:58:00;24.98;;;17.42;;
18405;SDS011;9329;48.720;9.588;2022-11-14T09:00:47;25.77;;;18.08;;
18405;SDS011;9329;48.720;9.588;2022-11-14T09:03:34;25.92;;;17.52;;
18405;SDS011;9329;48.720;9.588;2022-11-14T09:06:20;27.00;;;19.00;;
18405;SDS011;9329;48.720;9.588;2022-11-14T09:09:05;26.35;;;18.42;;
18405;SDS011;9329;48.720;9.588;2022-11-14T09:11:51;30.85;;;20.70;;
18405;SDS011;9329;48.720;9.588;2022-11-14T09:14:37;30.15;;;19.45;;
18405;SDS011;9329;48.720;9.588;2022-11-14T09:17:24;29.38;;;20.38;;
18405;SDS011;9329;48.720;9.588;2022-11-14T09:20:10;23.70;;;17.92;;
18405;SDS011;9329;48.720;9.588;2022-11-14T09:22:56;26.37;;;17.70;;
18405;SDS011;9329;48.720;9.588;2022-11-14T09:25:44;24.55;;;17.33;;
18405;SDS011;9329;48.720;9.588;2022-11-14T09:28:29;25.17;;;19.23;;
18405;SDS011;9329;48.720;9.588;2022-11-14T09:31:15;28.35;;;20.00;;
18405;SDS011;9329;48.720;9.588;2022-11-14T09:34:03;25.98;;;18.25;;
18405;SDS011;9329;48.720;9.588;2022-11-14T09:36:48;27.17;;;17.20;;
18405;SDS011;9329;48.720;9.588;2022-11-14T09:39:34;25.05;;;17.38;;
18405;SDS011;9329;48.720;9.588;2022-11-14T09:42:27;23.70;;;16.90;;
18405;SDS011;9329;48.720;9.588;2022-11-14T09:45:21;25.17;;;16.63;;
18405;SDS011;9329;48.720;9.588;2022-11-14T09:48:09;27.08;;;18.95;;
18405;SDS011;9329;48.720;9.588;2022-11-14T09:51:14;26.02;;;17.45;;
18405;SDS011;9329;48.720;9.588;2022-11-14T09:54:04;29.15;;;19.15;;
18405;SDS011;9329;48.720;9.588;2022-11-14T09:56:57;33.88;;;25.20;;
18405;SDS011;9329;48.720;9.588;2022-11-14T09:59:43;27.38;;;19.23;;
18405;SDS011;9329;48.720;9.588;2022-11-14T10:02:36;28.37;;;18.57;;
18405;SDS011;9329;48.720;9.588;2022-11-14T10:05:35;30.58;;;20.45;;
18405;SDS011;9329;48.720;9.588;2022-11-14T10:08:37;29.75;;;20.05;;
18405;SDS011;9329;48.720;9.588;2022-11-14T10:11:34;27.42;;;18.15;;
18405;SDS011;9329;48.720;9.588;2022-11-14T10:14:38;56.88;;;36.20;;
18405;SDS011;9329;48.720;9.588;2022-11-14T10:17:39;30.77;;;20.08;;
18405;SDS011;9329;48.720;9.588;2022-11-14T10:20:35;28.45;;;20.35;;
18405;SDS011;9329;48.720;9.588;2022-11-14T10:23:28;29.73;;;21.00;;
18405;SDS011;9329;48.720;9.588;2022-11-14T10:26:23;29.87;;;21.63;;
18405;SDS011;9329;48.720;9.588;2022-11-14T10:29:36;31.58;;;20.88;;
18405;SDS011;9329;48.720;9.588;2022-11-14T10:32:37;28.93;;;19.70;;
18405;SDS011;9329;48.720;9.588;2022-11-14T10:35:34;28.43;;;19.47;;
18405;SDS011;9329;48.720;9.588;2022-11-14T10:38:24;25.20;;;17.75;;
18405;SDS011;9329;48.720;9.588;2022-11-14T10:41:13;25.97;;;17.17;;
18405;SDS011;9329;48.720;9.588;2022-11-14T10:44:00;28.07;;;18.47;;
18405;SDS011;9329;48.720;9.588;2022-11-14T10:46:47;27.83;;;19.67;;
18405;SDS011;9329;48.720;9.588;2022-11-14T10:49:37;27.55;;;17.92;;
18405;SDS011;9329;48.720;9.588;2022-11-14T10:52:25;48.33;;;;;
18405;SDS011;9329;48.720;9.588;2022-11-14T10:55:22;21.60;;;12.63;;
18405;SDS011;9329;48.720;9.588;2022-11-14T10:58:08;24.13;;;15.55;;
18405;SDS011;9329;48.720;9.588;2022-11-14T11:00:59;14.73;;;9.95;;
18405;SDS011;9329;48.720;9.588;2022-11-14T11:04:19;13.35;;;10.40;;
18405;SDS011;9329;48.720;9.588;2022-11-14T11:07:17;6.28;;;4.47;;
18405;SDS011;9329;48.720;9.588;2022-11-14T11:10:38;13.20;;;7.63;;
18405;SDS011;9329;48.720;9.588;2022-11-14T11:13:50;12.05;;;6.50;;
18405;SDS011;9329;48.720;9.588;2022-11-14T11:16:40;9.25;;;5.97;;
18405;SDS011;9329;48.720;9.588;2022-11-14T11:19:26;6.23;;;4.40;;
18405;SDS011;9329;48.720;9.588;2022-11-14T11:22:23;32.28;;;18.30;;
18405;SDS011;9329;48.720;9.588;2022-11-14T11:25:22;10.00;;;6.40;;
18405;SDS011;9329;48.720;9.588;2022-11-14T11:28:11;5.53;;;3.40;;
18405;SDS011;9329;48.720;9.588;2022-11-14T11:30:58;8.38;;;3.17;;
18405;SDS011;9329;48.720;9.588;2022-11-14T11:33:46;4.05;;;2.00;;
18405;SDS011;9329;48.720;9.588;2022-11-14T11:36:38;4.55;;;2.70;;
18405;SDS011;9329;48.720;9.588;2022-11-14T11:39:31;5.28;;;2.08;;
18405;SDS011;9329;48.720;9.588;2022-11-14T11:42:21;3.10;;;1.60;;
18405;SDS011;9329;48.720;9.588;2022-11-14T11:45:10;2.55;;;1.60;;
18405;SDS011;9329;48.720;9.588;2022-11-14T11:48:00;1.70;;;1.27;;
18405;SDS011;9329;48.720;9.588;2022-11-14T11:50:54;2.40;;;1.30;;
18405;SDS011;9329;48.720;9.588;2022-11-14T11:53:42;1.95;;;1.30;;
18405;SDS011;9329;48.720;9.588;2022-11-14T11:56:31;2.83;;;1.30;;
18405;SDS011;9329;48.720;9.588;2022-11-14T11:59:20;2.70;;;1.25;;
18405;SDS011;9329;48.720;9.588;2022-11-14T12:02:16;3.83;;;1.00;;
18405;SDS011;9329;48.720;9.588;2022-11-14T12:05:06;1.80;;;1.25;;
18405;SDS011;9329;48.720;9.588;2022-11-14T12:07:59;1.80;;;1.20;;
18405;SDS011;9329;48.720;9.588;2022-11-14T12:10:47;2.50;;;1.38;;
18405;SDS011;9329;48.720;9.588;2022-11-14T12:13:49;2.75;;;1.30;;
18405;SDS011;9329;48.720;9.588;2022-11-14T12:16:52;2.00;;;1.30;;
18405;SDS011;9329;48.720;9.588;2022-11-14T12:20:10;1.80;;;1.30;;
18405;SDS011;9329;48.720;9.588;2022-11-14T12:23:19;2.90;;;1.67;;
18405;SDS011;9329;48.720;9.588;2022-11-14T12:26:23;2.17;;;1.65;;
18405;SDS011;9329;48.720;9.588;2022-11-14T12:29:28;2.80;;;1.90;;
18405;SDS011;9329;48.720;9.588;2022-11-14T12:32:36;2.63;;;1.52;;
18405;SDS011;9329;48.720;9.588;2022-11-14T12:35:28;5.55;;;1.98;;
18405;SDS011;9329;48.720;9.588;2022-11-14T12:38:16;2.20;;;1.35;;
18405;SDS011;9329;48.720;9.588;2022-11-14T12:41:04;4.07;;;1.52;;
18405;SDS011;9329;48.720;9.588;2022-11-14T12:43:50;2.78;;;1.20;;
18405;SDS011;9329;48.720;9.588;2022-11-14T12:50:00;3.40;;;1.30;;
18405;SDS011;9329;48.720;9.588;2022-11-14T12:52:49;3.25;;;1.30;;
18405;SDS011;9329;48.720;9.588;2022-11-14T12:55:59;2.10;;;1.27;;
18405;SDS011;9329;48.720;9.588;2022-11-14T12:59:07;2.93;;;1.40;;
18405;SDS011;9329;48.720;9.588;2022-11-14T13:05:37;3.17;;;1.47;;
18405;SDS011;9329;48.720;9.588;2022-11-14T13:11:51;1.60;;;1.10;;
18405;SDS011;9329;48.720;9.588;2022-11-14T13:14:55;2.77;;;1.20;;
18405;SDS011;9329;48.720;9.588;2022-11-14T13:18:03;3.00;;;1.15;;
18405;SDS011;9329;48.720;9.588;2022-11-14T13:21:21;3.20;;;2.00;;
18405;SDS011;9329;48.720;9.588;2022-11-14T13:24:26;3.93;;;1.90;;
18405;SDS011;9329;48.720;9.588;2022-11-14T13:27:57;3.03;;;1.60;;
18405;SDS011;9329;48.720;9.588;2022-11-14T13:31:22;3.47;;;1.80;;
18405;SDS011;9329;48.720;9.588;2022-11-14T13:34:27;2.85;;;1.60;;
18405;SDS011;9329;48.720;9.588;2022-11-14T13:37:22;2.73;;;1.60;;
18405;SDS011;9329;48.720;9.588;2022-11-14T13:40:25;4.55;;;2.00;;
18405;SDS011;9329;48.720;9.588;2022-11-14T13:43:20;3.30;;;1.67;;
18405;SDS011;9329;48.720;9.588;2022-11-14T13:46:15;4.65;;;2.00;;
18405;SDS011;9329;48.720;9.588;2022-11-14T13:49:16;3.63;;;2.10;;
18405;SDS011;9329;48.720;9.588;2022-11-14T13:52:12;3.30;;;1.95;;
18405;SDS011;9329;48.720;9.588;2022-11-14T13:54:59;4.18;;;1.92;;
18405;SDS011;9329;48.720;9.588;2022-11-14T13:57:48;5.30;;;1.98;;
18405;SDS011;9329;48.720;9.588;2022-11-14T14:00:49;4.07;;;1.80;;
18405;SDS011;9329;48.720;9.588;2022-11-14T14:03:54;3.53;;;1.87;;
18405;SDS011;9329;48.720;9.588;2022-11-14T14:06:54;3.80;;;1.80;;
18405;SDS011;9329;48.720;9.588;2022-11-14T14:09:49;2.92;;;1.67;;
18405;SDS011;9329;48.720;9.588;2022-11-14T14:12:49;5.72;;;1.70;;
18405;SDS011;9329;48.720;9.588;2022-11-14T14:15:44;3.72;;;1.95;;
18405;SDS011;9329;48.720;9.588;2022-11-14T14:18:41;2.45;;;1.60;;
18405;SDS011;9329;48.720;9.588;2022-11-14T14:21:35;5.72;;;2.45;;
18405;SDS011;9329;48.720;9.588;2022-11-14T14:24:31;4.57;;;2.05;;
18405;SDS011;9329;48.720;9.588;2022-11-14T14:30:21;3.40;;;1.85;;
18405;SDS011;9329;48.720;9.588;2022-11-14T14:33:10;4.37;;;2.10;;
18405;SDS011;9329;48.720;9.588;2022-11-14T14:35:57;4.40;;;2.10;;
18405;SDS011;9329;48.720;9.588;2022-11-14T14:38:43;4.75;;;2.15;;
18405;SDS011;9329;48.720;9.588;2022-11-14T14:41:29;4.40;;;2.10;;
18405;SDS011;9329;48.720;9.588;2022-11-14T14:44:18;3.28;;;1.90;;
18405;SDS011;9329;48.720;9.588;2022-11-14T14:47:16;4.05;;;1.73;;
18405;SDS011;9329;48.720;9.588;2022-11-14T14:50:20;3.90;;;2.00;;
18405;SDS011;9329;48.720;9.588;2022-11-14T14:53:17;4.57;;;2.00;;
18405;SDS011;9329;48.720;9.588;2022-11-14T14:56:05;3.75;;;1.60;;
18405;SDS011;9329;48.720;9.588;2022-11-14T14:59:14;3.60;;;2.00;;
18405;SDS011;9329;48.720;9.588;2022-11-14T15:02:00;3.67;;;1.95;;
18405;SDS011;9329;48.720;9.588;2022-11-14T15:04:47;4.90;;;2.40;;
18405;SDS011;9329;48.720;9.588;2022-11-14T15:07:34;2.63;;;1.55;;
18405;SDS011;9329;48.720;9.588;2022-11-14T15:10:24;4.38;;;1.75;;
18405;SDS011;9329;48.720;9.588;2022-11-14T15:13:13;6.50;;;2.30;;
18405;SDS011;9329;48.720;9.588;2022-11-14T15:16:01;4.87;;;2.30;;
18405;SDS011;9329;48.720;9.588;2022-11-14T15:18:48;3.28;;;2.10;;
18405;SDS011;9329;48.720;9.588;2022-11-14T15:21:36;3.90;;;2.10;;
18405;SDS011;9329;48.720;9.588;2022-11-14T15:24:23;3.20;;;2.10;;
18405;SDS011;9329;48.720;9.588;2022-11-14T15:27:10;4.83;;;2.00;;
18405;SDS011;9329;48.720;9.588;2022-11-14T15:29:58;3.80;;;2.20;;
18405;SDS011;9329;48.720;9.588;2022-11-14T15:32:48;4.95;;;2.28;;
18405;SDS011;9329;48.720;9.588;2022-11-14T15:35:35;5.20;;;2.25;;
18405;SDS011;9329;48.720;9.588;2022-11-14T15:38:22;4.40;;;2.40;;
18405;SDS011;9329;48.720;9.588;2022-11-14T15:41:10;6.15;;;3.17;;
18405;SDS011;9329;48.720;9.588;2022-11-14T15:44:01;4.30;;;2.40;;
18405;SDS011;9329;48.720;9.588;2022-11-14T15:46:48;5.13;;;2.92;;
18405;SDS011;9329;48.720;9.588;2022-11-14T15:49:34;5.90;;;2.90;;
18405;SDS011;9329;48.720;9.588;2022-11-14T15:52:22;4.95;;;3.17;;
18405;SDS011;9329;48.720;9.588;2022-11-14T15:55:12;5.18;;;2.70;;
18405;SDS011;9329;48.720;9.588;2022-11-14T15:58:01;5.50;;;3.00;;
18405;SDS011;9329;48.720;9.588;2022-11-14T16:00:47;5.40;;;3.10;;
18405;SDS011;9329;48.720;9.588;2022-11-14T16:03:34;5.05;;;2.70;;
18405;SDS011;9329;48.720;9.588;2022-11-14T16:06:20;4.57;;;2.63;;
18405;SDS011;9329;48.720;9.588;2022-11-14T16:09:05;6.18;;;3.03;;
18405;SDS011;9329;48.720;9.588;2022-11-14T16:11:56;12.20;;;6.60;;
18405;SDS011;9329;48.720;9.588;2022-11-14T16:14:43;7.85;;;3.88;;
18405;SDS011;9329;48.720;9.588;2022-11-14T16:17:33;6.25;;;3.83;;
18405;SDS011;9329;48.720;9.588;2022-11-14T16:20:21;9.50;;;4.65;;
18405;SDS011;9329;48.720;9.588;2022-11-14T16:23:09;6.32;;;3.50;;
18405;SDS011;9329;48.720;9.588;2022-11-14T16:25:56;6.55;;;3.50;;
18405;SDS011;9329;48.720;9.588;2022-11-14T16:28:42;4.63;;;3.47;;
18405;SDS011;9329;48.720;9.588;2022-11-14T16:31:29;5.70;;;3.70;;
18405;SDS011;9329;48.720;9.588;2022-11-14T16:34:16;6.72;;;4.00;;
18405;SDS011;9329;48.720;9.588;2022-11-14T16:37:03;6.03;;;3.47;;
18405;SDS011;9329;48.720;9.588;2022-11-14T16:39:49;4.80;;;3.13;;
18405;SDS011;9329;48.720;9.588;2022-11-14T16:42:35;5.60;;;3.30;;
18405;SDS011;9329;48.720;9.588;2022-11-14T16:45:21;7.30;;;4.90;;
18405;SDS011;9329;48.720;9.588;2022-11-14T16:48:09;18.77;;;12.18;;
18405;SDS011;9329;48.720;9.588;2022-11-14T16:50:55;15.00;;;9.23;;
18405;SDS011;9329;48.720;9.588;2022-11-14T16:53:45;17.98;;;11.82;;
18405;SDS011;9329;48.720;9.588;2022-11-14T16:56:30;15.50;;;10.55;;
18405;SDS011;9329;48.720;9.588;2022-11-14T16:59:15;17.40;;;10.90;;
18405;SDS011;9329;48.720;9.588;2022-11-14T17:02:01;12.85;;;6.38;;
18405;SDS011;9329;48.720;9.588;2022-11-14T17:04:49;8.82;;;5.20;;
18405;SDS011;9329;48.720;9.588;2022-11-14T17:07:34;15.93;;;8.97;;
18405;SDS011;9329;48.720;9.588;2022-11-14T17:10:20;15.85;;;9.57;;